createdAt,value
2023-05-19T00:00:19.609Z,101853.40
2023-05-19T00:01:52.535Z,101856.60
2023-05-19T00:03:24.872Z,101857.40
2023-05-19T00:04:56.990Z,101855.80
2023-05-19T00:06:32.416Z,101855.40
2023-05-19T00:08:05.078Z,101852.60
2023-05-19T00:09:38.023Z,101848.80
2023-05-19T00:11:11.206Z,101851.20
2023-05-19T00:12:43.698Z,101846.40
2023-05-19T00:14:15.999Z,101847.40
2023-05-19T00:15:48.151Z,101849.00
2023-05-19T00:17:20.367Z,101848.80
2023-05-19T00:18:53.261Z,101850.40
2023-05-19T00:20:25.216Z,101853.60
2023-05-19T00:21:57.024Z,101848.00
2023-05-19T00:23:28.781Z,101852.00
2023-05-19T00:25:00.825Z,101849.20
2023-05-19T00:26:32.813Z,101850.20
2023-05-19T00:28:06.815Z,101850.40
2023-05-19T00:29:38.576Z,101850.20
2023-05-19T00:31:10.662Z,101851.80
2023-05-19T00:32:42.472Z,101855.00
2023-05-19T00:34:14.274Z,101854.80
2023-05-19T00:35:46.084Z,101850.60
2023-05-19T00:37:17.956Z,101852.40
2023-05-19T00:38:51.181Z,101854.20
2023-05-19T00:40:24.558Z,101851.40
2023-05-19T00:41:56.616Z,101856.60
2023-05-19T00:43:30.231Z,101852.00
2023-05-19T00:45:02.158Z,101857.00
2023-05-19T00:46:34.598Z,101857.40
2023-05-19T00:48:06.647Z,101853.60
2023-05-19T00:49:38.523Z,101848.40
2023-05-19T00:51:14.568Z,101850.00
2023-05-19T00:52:46.945Z,101847.00
2023-05-19T00:54:20.415Z,101850.80
2023-05-19T00:55:52.280Z,101849.80
2023-05-19T00:57:26.040Z,101845.80
2023-05-19T00:58:59.374Z,101847.40
2023-05-19T01:00:32.159Z,101843.20
2023-05-19T01:02:04.644Z,101844.80
2023-05-19T01:03:37.126Z,101847.60
2023-05-19T01:05:10.292Z,101845.60
2023-05-19T01:06:43.640Z,101845.20
2023-05-19T01:08:16.246Z,101843.40
2023-05-19T01:09:48.658Z,101845.20
2023-05-19T01:11:21.487Z,101840.60
2023-05-19T01:12:53.266Z,101842.40
2023-05-19T01:14:25.164Z,101842.20
2023-05-19T01:16:38.565Z,101843.00
2023-05-19T01:18:23.989Z,101845.40
2023-05-19T01:19:56.348Z,101844.20
2023-05-19T01:22:06.854Z,101843.40
2023-05-19T01:23:49.255Z,101842.40
2023-05-19T01:25:45.712Z,101844.00
2023-05-19T01:27:39.222Z,101839.00
2023-05-19T01:29:42.592Z,101840.20
2023-05-19T01:31:18.315Z,101837.40
2023-05-19T01:32:54.463Z,101836.20
2023-05-19T01:34:31.378Z,101833.40
2023-05-19T01:36:05.264Z,101833.80
2023-05-19T01:37:39.286Z,101836.20
2023-05-19T01:39:14.908Z,101835.00
2023-05-19T01:40:50.386Z,101830.40
2023-05-19T01:42:25.450Z,101832.60
2023-05-19T01:43:58.303Z,101837.00
2023-05-19T01:45:33.649Z,101836.60
2023-05-19T01:47:05.973Z,101837.60
2023-05-19T01:48:39.106Z,101841.20
2023-05-19T01:50:11.634Z,101837.40
2023-05-19T01:51:43.898Z,101843.40
2023-05-19T01:53:16.220Z,101842.40
2023-05-19T01:54:47.963Z,101845.40
2023-05-19T01:56:47.348Z,101845.80
2023-05-19T01:58:46.725Z,101843.60
2023-05-19T02:00:52.103Z,101843.80
2023-05-19T02:02:51.837Z,101845.20
2023-05-19T02:04:43.838Z,101848.40
2023-05-19T02:06:31.136Z,101848.00
2023-05-19T02:08:30.647Z,101847.00
2023-05-19T02:10:14.632Z,101842.80
2023-05-19T02:12:02.897Z,101848.00
2023-05-19T02:13:43.438Z,101847.60
2023-05-19T02:15:19.963Z,101849.80
2023-05-19T02:16:56.087Z,101847.40
2023-05-19T02:18:30.104Z,101851.80
2023-05-19T02:20:04.761Z,101852.20
2023-05-19T02:21:36.529Z,101848.60
2023-05-19T02:23:08.287Z,101847.00
2023-05-19T02:24:41.494Z,101847.80
2023-05-19T02:26:13.328Z,101843.20
2023-05-19T02:27:45.066Z,101844.60
2023-05-19T02:29:16.865Z,101846.00
2023-05-19T02:30:48.664Z,101850.60
2023-05-19T02:32:21.689Z,101846.60
2023-05-19T02:33:54.025Z,101845.80
2023-05-19T02:35:25.950Z,101842.40
2023-05-19T02:36:58.243Z,101842.80
2023-05-19T02:38:30.230Z,101842.60
2023-05-19T02:40:02.740Z,101842.40
2023-05-19T02:41:34.903Z,101842.00
2023-05-19T02:43:06.920Z,101842.20
2023-05-19T02:44:38.802Z,101841.20
2023-05-19T02:46:10.805Z,101844.00
2023-05-19T02:47:42.697Z,101840.60
2023-05-19T02:49:15.019Z,101839.40
2023-05-19T02:50:46.839Z,101837.40
2023-05-19T02:52:18.718Z,101827.80
2023-05-19T02:53:53.636Z,101832.20
2023-05-19T02:55:25.760Z,101826.80
2023-05-19T02:56:58.465Z,101824.80
2023-05-19T02:58:30.763Z,101824.00
2023-05-19T03:00:02.620Z,101822.80
2023-05-19T03:01:34.483Z,101828.40
2023-05-19T03:03:06.382Z,101826.80
2023-05-19T03:04:42.047Z,101830.40
2023-05-19T03:06:14.167Z,101826.60
2023-05-19T03:07:45.957Z,101824.00
2023-05-19T03:09:17.829Z,101821.40
2023-05-19T03:10:49.622Z,101823.40
2023-05-19T03:12:21.857Z,101824.40
2023-05-19T03:13:53.574Z,101821.40
2023-05-19T03:15:25.323Z,101823.00
2023-05-19T03:16:57.372Z,101824.80
2023-05-19T03:18:29.516Z,101823.80
2023-05-19T03:20:01.754Z,101830.60
2023-05-19T03:21:34.598Z,101828.40
2023-05-19T03:23:06.580Z,101831.40
2023-05-19T03:24:38.987Z,101826.60
2023-05-19T03:26:10.752Z,101833.00
2023-05-19T03:27:42.812Z,101833.60
2023-05-19T03:29:14.582Z,101836.00
2023-05-19T03:30:46.533Z,101833.00
2023-05-19T03:32:22.451Z,101838.00
2023-05-19T03:33:54.501Z,101837.60
2023-05-19T03:35:26.650Z,101835.20
2023-05-19T03:36:58.638Z,101830.00
2023-05-19T03:38:30.717Z,101831.00
2023-05-19T03:40:04.991Z,101832.20
2023-05-19T03:41:37.513Z,101831.40
2023-05-19T03:43:09.284Z,101829.00
2023-05-19T03:44:46.595Z,101832.80
2023-05-19T03:46:18.676Z,101828.80
2023-05-19T03:48:09.096Z,101827.40
2023-05-19T03:50:07.438Z,101830.00
2023-05-19T03:52:05.475Z,101828.20
2023-05-19T03:54:03.686Z,101824.20
2023-05-19T03:55:37.232Z,101828.20
2023-05-19T03:57:11.242Z,101827.20
2023-05-19T03:58:44.518Z,101827.60
2023-05-19T04:00:17.319Z,101831.80
2023-05-19T04:01:49.610Z,101833.00
2023-05-19T04:03:21.796Z,101830.60
2023-05-19T04:04:53.766Z,101830.40
2023-05-19T04:06:25.880Z,101829.60
2023-05-19T04:07:59.037Z,101834.60
2023-05-19T04:09:32.501Z,101830.40
2023-05-19T04:11:04.557Z,101832.00
2023-05-19T04:12:36.389Z,101828.80
2023-05-19T04:14:09.009Z,101832.40
2023-05-19T04:15:41.896Z,101839.40
2023-05-19T04:17:13.997Z,101835.60
2023-05-19T04:18:46.470Z,101838.00
2023-05-19T04:20:18.597Z,101838.40
2023-05-19T04:21:51.522Z,101835.40
2023-05-19T04:23:23.478Z,101840.80
2023-05-19T04:24:56.277Z,101837.60
2023-05-19T04:26:31.217Z,101842.80
2023-05-19T04:28:03.390Z,101839.20
2023-05-19T04:29:35.603Z,101845.80
2023-05-19T04:31:11.127Z,101843.60
2023-05-19T04:32:43.006Z,101847.60
2023-05-19T04:34:15.020Z,101842.60
2023-05-19T04:35:47.133Z,101847.00
2023-05-19T04:37:20.325Z,101847.20
2023-05-19T04:38:55.038Z,101844.80
2023-05-19T04:40:31.247Z,101845.00
2023-05-19T04:42:03.531Z,101844.80
2023-05-19T04:43:36.533Z,101843.40
2023-05-19T04:45:09.963Z,101843.60
2023-05-19T04:46:45.223Z,101841.60
2023-05-19T04:48:17.329Z,101845.40
2023-05-19T04:49:49.066Z,101847.80
2023-05-19T04:51:21.124Z,101847.00
2023-05-19T04:52:53.260Z,101850.00
2023-05-19T04:54:26.463Z,101846.60
2023-05-19T04:56:01.087Z,101853.20
2023-05-19T04:57:32.894Z,101850.80
2023-05-19T04:59:04.893Z,101851.60
2023-05-19T05:00:39.535Z,101848.60
2023-05-19T05:02:12.672Z,101851.20
2023-05-19T05:03:44.940Z,101847.40
2023-05-19T05:05:16.903Z,101852.00
2023-05-19T05:06:50.404Z,101852.80
2023-05-19T05:08:23.462Z,101849.00
2023-05-19T05:09:55.437Z,101849.00
2023-05-19T05:11:27.901Z,101853.00
2023-05-19T05:13:01.202Z,101850.40
2023-05-19T05:14:33.800Z,101845.80
2023-05-19T05:16:06.579Z,101846.40
2023-05-19T05:17:38.999Z,101843.40
2023-05-19T05:19:11.562Z,101852.40
2023-05-19T05:20:44.841Z,101851.60
2023-05-19T05:22:17.566Z,101853.00
2023-05-19T05:23:51.839Z,101850.80
2023-05-19T05:25:24.520Z,101850.20
2023-05-19T05:26:56.431Z,101853.40
2023-05-19T05:28:28.253Z,101854.20
2023-05-19T05:29:59.998Z,101852.20
2023-05-19T05:31:33.064Z,101849.80
2023-05-19T05:33:05.445Z,101850.20
2023-05-19T05:34:41.972Z,101847.00
2023-05-19T05:36:14.784Z,101846.00
2023-05-19T05:37:46.635Z,101847.00
2023-05-19T05:39:18.455Z,101842.00
2023-05-19T05:40:50.460Z,101845.60
2023-05-19T05:42:22.355Z,101844.40
2023-05-19T05:43:54.577Z,101847.00
2023-05-19T05:45:26.914Z,101847.00
2023-05-19T05:46:59.579Z,101842.40
2023-05-19T05:48:31.746Z,101844.00
2023-05-19T05:50:08.957Z,101846.40
2023-05-19T05:51:44.630Z,101837.40
2023-05-19T05:53:26.321Z,101841.60
2023-05-19T05:54:59.109Z,101838.20
2023-05-19T05:56:33.651Z,101840.60
2023-05-19T05:58:05.717Z,101843.40
2023-05-19T05:59:38.690Z,101841.00
2023-05-19T06:01:11.484Z,101844.60
2023-05-19T06:02:47.307Z,101841.00
2023-05-19T06:04:21.144Z,101841.80
2023-05-19T06:05:53.207Z,101841.20
2023-05-19T06:07:25.319Z,101838.60
2023-05-19T06:08:57.143Z,101833.20
2023-05-19T06:10:29.676Z,101832.80
2023-05-19T06:12:01.670Z,101831.60
2023-05-19T06:13:37.127Z,101838.00
2023-05-19T06:15:10.616Z,101835.40
2023-05-19T06:16:45.123Z,101834.60
2023-05-19T06:18:17.871Z,101832.80
2023-05-19T06:19:49.783Z,101832.20
2023-05-19T06:21:21.975Z,101826.40
2023-05-19T06:22:53.795Z,101822.60
2023-05-19T06:24:26.893Z,101818.60
2023-05-19T06:25:58.754Z,101819.80
2023-05-19T06:27:32.580Z,101821.60
2023-05-19T06:29:05.818Z,101820.20
2023-05-19T06:30:37.560Z,101816.60
2023-05-19T06:32:21.324Z,101822.40
2023-05-19T06:33:53.772Z,101823.60
2023-05-19T06:35:25.678Z,101824.80
2023-05-19T06:36:57.706Z,101824.80
2023-05-19T06:38:29.564Z,101826.60
2023-05-19T06:40:01.414Z,101828.60
2023-05-19T06:41:33.338Z,101830.80
2023-05-19T06:43:05.685Z,101833.20
2023-05-19T06:45:12.805Z,101831.60
2023-05-19T06:46:44.790Z,101834.00
2023-05-19T06:48:16.820Z,101835.40
2023-05-19T06:49:55.371Z,101832.60
2023-05-19T06:51:29.399Z,101830.20
2023-05-19T06:53:01.796Z,101834.40
2023-05-19T06:54:34.385Z,101829.20
2023-05-19T06:56:08.058Z,101829.80
2023-05-19T06:57:40.921Z,101830.20
2023-05-19T06:59:13.016Z,101832.80
2023-05-19T07:00:44.815Z,101827.60
2023-05-19T07:02:17.765Z,101826.60
2023-05-19T07:03:50.262Z,101830.80
2023-05-19T07:05:22.472Z,101824.60
2023-05-19T07:06:57.917Z,101826.20
2023-05-19T07:08:30.119Z,101825.60
2023-05-19T07:10:04.458Z,101827.40
2023-05-19T07:11:36.483Z,101827.40
2023-05-19T07:13:08.309Z,101830.60
2023-05-19T07:14:41.123Z,101827.20
2023-05-19T07:16:12.955Z,101831.60
2023-05-19T07:17:45.094Z,101830.60
2023-05-19T07:19:19.626Z,101833.80
2023-05-19T07:20:54.377Z,101830.40
2023-05-19T07:22:26.274Z,101825.80
2023-05-19T07:23:58.241Z,101821.20
2023-05-19T07:25:33.380Z,101826.00
2023-05-19T07:27:05.704Z,101823.20
2023-05-19T07:28:39.864Z,101822.60
2023-05-19T07:30:14.166Z,101823.60
2023-05-19T07:31:46.092Z,101822.00
2023-05-19T07:33:17.933Z,101821.80
2023-05-19T07:34:49.697Z,101814.60
2023-05-19T07:36:21.706Z,101820.60
2023-05-19T07:37:53.637Z,101816.40
2023-05-19T07:39:29.569Z,101818.00
2023-05-19T07:41:02.892Z,101816.80
2023-05-19T07:42:34.976Z,101822.20
2023-05-19T07:44:07.839Z,101824.00
2023-05-19T07:45:40.161Z,101823.00
2023-05-19T07:47:12.017Z,101821.40
2023-05-19T07:48:44.053Z,101817.20
2023-05-19T07:50:16.320Z,101817.20
2023-05-19T07:51:48.417Z,101817.00
2023-05-19T07:53:21.001Z,101820.20
2023-05-19T07:54:53.224Z,101819.60
2023-05-19T07:56:25.184Z,101818.40
2023-05-19T07:57:57.438Z,101817.00
2023-05-19T07:59:29.336Z,101815.60
2023-05-19T08:01:01.224Z,101813.20
2023-05-19T08:02:34.082Z,101813.20
2023-05-19T08:04:06.170Z,101809.40
2023-05-19T08:05:38.218Z,101810.40
2023-05-19T08:07:10.074Z,101813.80
2023-05-19T08:08:43.204Z,101813.00
2023-05-19T08:10:15.073Z,101802.80
2023-05-19T08:11:50.032Z,101807.60
2023-05-19T08:13:22.013Z,101804.40
2023-05-19T08:14:53.795Z,101804.80
2023-05-19T08:16:25.809Z,101802.40
2023-05-19T08:17:57.767Z,101798.00
2023-05-19T08:19:29.592Z,101802.80
2023-05-19T08:21:01.506Z,101804.00
2023-05-19T08:22:33.433Z,101808.00
2023-05-19T08:24:06.375Z,101798.60
2023-05-19T08:25:38.299Z,101804.20
2023-05-19T08:27:10.120Z,101798.60
2023-05-19T08:28:42.039Z,101799.00
2023-05-19T08:30:14.329Z,101794.20
2023-05-19T08:31:46.420Z,101796.00
2023-05-19T08:33:20.768Z,101792.40
2023-05-19T08:34:52.662Z,101792.00
2023-05-19T08:36:24.936Z,101785.80
2023-05-19T08:37:56.786Z,101791.00
2023-05-19T08:39:28.638Z,101786.40
2023-05-19T08:41:00.532Z,101784.80
2023-05-19T08:42:33.300Z,101780.00
2023-05-19T08:44:05.777Z,101782.40
2023-05-19T08:45:48.582Z,101777.40
2023-05-19T08:47:20.817Z,101779.80
2023-05-19T08:49:00.923Z,101781.00
2023-05-19T08:50:39.091Z,101778.40
2023-05-19T08:52:35.520Z,101776.40
2023-05-19T08:54:15.451Z,101770.20
2023-05-19T08:56:21.829Z,101766.00
2023-05-19T08:57:54.770Z,101766.80
2023-05-19T08:59:27.105Z,101767.80
2023-05-19T09:01:01.250Z,101767.00
2023-05-19T09:02:33.707Z,101764.40
2023-05-19T09:04:06.832Z,101766.20
2023-05-19T09:05:39.541Z,101763.60
2023-05-19T09:07:14.603Z,101761.20
2023-05-19T09:08:47.166Z,101759.20
2023-05-19T09:10:18.974Z,101755.60
2023-05-19T09:11:50.890Z,101755.40
2023-05-19T09:13:22.651Z,101759.80
2023-05-19T09:14:56.177Z,101757.20
2023-05-19T09:16:30.169Z,101749.80
2023-05-19T09:18:14.327Z,101753.00
2023-05-19T09:19:49.270Z,101752.60
2023-05-19T09:21:21.670Z,101746.80
2023-05-19T09:22:53.587Z,101747.40
2023-05-19T09:24:26.153Z,101747.00
2023-05-19T09:26:02.291Z,101749.00
2023-05-19T09:27:34.153Z,101747.20
2023-05-19T09:29:18.580Z,101749.80
2023-05-19T09:31:00.070Z,101744.00
2023-05-19T09:32:31.920Z,101744.20
2023-05-19T09:34:03.737Z,101745.00
2023-05-19T09:35:36.869Z,101743.40
2023-05-19T09:37:08.740Z,101742.00
2023-05-19T09:38:41.525Z,101744.60
2023-05-19T09:40:17.191Z,101742.20
2023-05-19T09:41:54.134Z,101738.80
2023-05-19T09:43:30.772Z,101738.40
2023-05-19T09:45:03.620Z,101738.40
2023-05-19T09:46:36.686Z,101733.20
2023-05-19T09:48:08.799Z,101725.80
2023-05-19T09:49:47.741Z,101739.60
2023-05-19T09:51:21.359Z,101738.20
2023-05-19T09:52:53.477Z,101734.00
2023-05-19T09:54:28.460Z,101736.20
2023-05-19T09:56:03.595Z,101732.20
2023-05-19T09:57:37.523Z,101721.60
2023-05-19T09:59:09.298Z,101715.60
2023-05-19T10:00:42.174Z,101729.20
2023-05-19T10:02:20.792Z,101725.60
2023-05-19T10:03:53.733Z,101727.20
2023-05-19T10:05:27.659Z,101727.20
2023-05-19T10:07:00.226Z,101720.80
2023-05-19T10:08:34.492Z,101719.00
2023-05-19T10:10:13.357Z,101721.00
2023-05-19T10:11:45.943Z,101716.40
2023-05-19T10:13:18.323Z,101711.20
2023-05-19T10:14:52.980Z,101716.60
2023-05-19T10:16:28.476Z,101710.60
2023-05-19T10:18:03.056Z,101712.00
2023-05-19T10:19:37.229Z,101711.40
2023-05-19T10:21:10.660Z,101703.40
2023-05-19T10:22:46.182Z,101702.40
2023-05-19T10:24:18.725Z,101713.20
2023-05-19T10:25:56.620Z,101706.20
2023-05-19T10:27:30.999Z,101703.00
2023-05-19T10:29:05.005Z,101708.40
2023-05-19T10:30:41.767Z,101700.80
2023-05-19T10:32:23.665Z,101708.20
2023-05-19T10:34:10.795Z,101698.20
2023-05-19T10:35:51.196Z,101695.80
2023-05-19T10:37:49.175Z,101704.80
2023-05-19T10:39:36.744Z,101702.40
2023-05-19T10:41:19.706Z,101699.40
2023-05-19T10:43:14.196Z,101696.60
2023-05-19T10:45:18.053Z,101689.20
2023-05-19T10:46:50.629Z,101695.40
2023-05-19T10:48:23.357Z,101695.80
2023-05-19T10:49:55.958Z,101694.00
2023-05-19T10:51:34.649Z,101695.00
2023-05-19T10:53:18.465Z,101690.00
2023-05-19T10:54:51.384Z,101688.40
2023-05-19T10:56:32.994Z,101683.20
2023-05-19T10:58:05.072Z,101685.20
2023-05-19T10:59:37.831Z,101689.80
2023-05-19T11:01:25.001Z,101687.00
2023-05-19T11:03:14.372Z,101688.00
2023-05-19T11:04:51.933Z,101687.80
2023-05-19T11:06:36.149Z,101683.80
2023-05-19T11:08:08.533Z,101687.80
2023-05-19T11:09:41.304Z,101685.60
2023-05-19T11:11:17.423Z,101684.00
2023-05-19T11:12:50.163Z,101691.60
2023-05-19T11:14:29.188Z,101693.60
2023-05-19T11:16:09.085Z,101693.40
2023-05-19T11:17:42.997Z,101694.20
2023-05-19T11:19:36.022Z,101688.20
2023-05-19T11:21:07.942Z,101683.40
2023-05-19T11:22:40.548Z,101681.20
2023-05-19T11:24:36.345Z,101680.40
2023-05-19T11:26:09.162Z,101682.00
2023-05-19T11:27:42.574Z,101680.20
2023-05-19T11:29:14.941Z,101679.80
2023-05-19T11:30:52.270Z,101680.60
2023-05-19T11:32:31.182Z,101677.40
2023-05-19T11:34:06.768Z,101681.60
2023-05-19T11:35:39.144Z,101682.40
2023-05-19T11:37:12.266Z,101679.80
2023-05-19T11:38:45.512Z,101671.00
2023-05-19T11:40:18.500Z,101667.40
2023-05-19T11:41:51.669Z,101656.20
2023-05-19T11:43:25.392Z,101671.20
2023-05-19T11:44:57.301Z,101670.40
2023-05-19T11:46:29.170Z,101665.00
2023-05-19T11:48:04.152Z,101676.40
2023-05-19T11:49:36.184Z,101662.60
2023-05-19T11:51:08.136Z,101665.20
2023-05-19T11:52:45.227Z,101667.00
2023-05-19T11:54:19.321Z,101664.80
2023-05-19T11:55:51.529Z,101662.80
2023-05-19T11:57:23.658Z,101664.00
2023-05-19T11:58:55.429Z,101661.00
2023-05-19T12:00:28.934Z,101662.60
2023-05-19T12:02:30.782Z,101653.00
2023-05-19T12:04:07.788Z,101643.20
2023-05-19T12:05:48.705Z,101652.20
2023-05-19T12:07:24.149Z,101657.80
2023-05-19T12:08:56.096Z,101657.00
2023-05-19T12:10:31.029Z,101655.80
2023-05-19T12:12:03.673Z,101650.20
2023-05-19T12:13:35.436Z,101652.80
2023-05-19T12:15:08.888Z,101652.40
2023-05-19T12:16:42.091Z,101646.60
2023-05-19T12:18:14.066Z,101649.20
2023-05-19T12:19:48.655Z,101643.00
2023-05-19T12:21:20.529Z,101652.60
2023-05-19T12:22:55.022Z,101656.20
2023-05-19T12:24:27.004Z,101645.20
2023-05-19T12:26:01.964Z,101638.00
2023-05-19T12:27:37.577Z,101635.00
2023-05-19T12:29:09.357Z,101635.80
2023-05-19T12:30:47.243Z,101641.80
2023-05-19T12:32:22.650Z,101628.20
2023-05-19T12:33:56.045Z,101638.60
2023-05-19T12:35:32.117Z,101638.00
2023-05-19T12:37:05.545Z,101638.60
2023-05-19T12:38:39.551Z,101639.20
2023-05-19T12:40:17.017Z,101640.20
2023-05-19T12:41:48.848Z,101644.20
2023-05-19T12:43:23.880Z,101633.80
2023-05-19T12:44:57.313Z,101635.40
2023-05-19T12:46:33.081Z,101628.80
2023-05-19T12:48:12.337Z,101625.00
2023-05-19T12:49:59.394Z,101641.60
2023-05-19T12:51:31.230Z,101625.60
2023-05-19T12:53:03.054Z,101624.00
2023-05-19T12:54:35.067Z,101617.40
2023-05-19T12:56:15.292Z,101617.20
2023-05-19T12:57:57.244Z,101610.40
2023-05-19T12:59:38.521Z,101614.00
2023-05-19T13:01:19.076Z,101614.40
2023-05-19T13:03:06.633Z,101607.60
2023-05-19T13:04:38.649Z,101608.60
2023-05-19T13:06:10.860Z,101604.20
2023-05-19T13:07:53.276Z,101611.80
2023-05-19T13:09:25.074Z,101607.40
2023-05-19T13:10:56.898Z,101609.80
2023-05-19T13:12:29.054Z,101604.20
2023-05-19T13:14:00.899Z,101607.80
2023-05-19T13:15:35.747Z,101600.80
2023-05-19T13:17:07.527Z,101603.00
2023-05-19T13:18:39.781Z,101590.00
2023-05-19T13:20:13.039Z,101594.40
2023-05-19T13:21:47.434Z,101596.80
2023-05-19T13:23:19.317Z,101592.80
2023-05-19T13:24:53.237Z,101590.40
2023-05-19T13:26:25.254Z,101606.00
2023-05-19T13:27:59.340Z,101601.00
2023-05-19T13:29:31.183Z,101600.80
2023-05-19T13:31:02.990Z,101602.20
2023-05-19T13:32:35.097Z,101603.60
2023-05-19T13:34:07.072Z,101588.80
2023-05-19T13:35:39.389Z,101600.80
2023-05-19T13:37:11.873Z,101600.20
2023-05-19T13:38:43.786Z,101597.40
2023-05-19T13:40:17.137Z,101602.60
2023-05-19T13:41:48.876Z,101617.80
2023-05-19T13:43:21.626Z,101606.20
2023-05-19T13:44:56.409Z,101584.40
2023-05-19T13:46:40.951Z,101589.00
2023-05-19T13:48:16.910Z,101590.20
2023-05-19T13:49:48.983Z,101590.60
2023-05-19T13:51:20.803Z,101585.00
2023-05-19T13:52:53.340Z,101589.00
2023-05-19T13:54:25.398Z,101598.40
2023-05-19T13:55:57.190Z,101598.60
2023-05-19T13:57:29.100Z,101588.80
2023-05-19T13:59:00.829Z,101579.20
2023-05-19T14:00:32.999Z,101590.00
2023-05-19T14:02:06.567Z,101588.80
2023-05-19T14:03:38.558Z,101581.80
2023-05-19T14:05:10.626Z,101574.20
2023-05-19T14:06:42.399Z,101582.00
2023-05-19T14:08:14.724Z,101579.00
2023-05-19T14:09:46.566Z,101582.20
2023-05-19T14:11:20.081Z,101569.20
2023-05-19T14:13:25.359Z,101581.20
2023-05-19T14:14:50.028Z,101578.80
2023-05-19T14:16:26.423Z,101588.00
2023-05-19T14:17:59.121Z,101573.60
2023-05-19T14:19:31.093Z,101568.80
2023-05-19T14:21:03.165Z,101577.20
2023-05-19T14:22:35.113Z,101593.00
2023-05-19T14:24:07.005Z,101585.60
2023-05-19T14:25:38.832Z,101579.80
2023-05-19T14:27:10.801Z,101576.20
2023-05-19T14:28:42.781Z,101573.40
2023-05-19T14:30:14.516Z,101571.20
2023-05-19T14:31:46.412Z,101567.20
2023-05-19T14:33:19.498Z,101570.60
2023-05-19T14:34:54.288Z,101569.00
2023-05-19T14:36:26.048Z,101562.80
2023-05-19T14:37:57.855Z,101569.60
2023-05-19T14:39:31.324Z,101575.60
2023-05-19T14:41:03.618Z,101583.40
2023-05-19T14:42:35.431Z,101591.00
2023-05-19T14:44:07.404Z,101583.60
2023-05-19T14:45:39.284Z,101583.40
2023-05-19T14:47:12.482Z,101565.00
2023-05-19T14:48:44.476Z,101588.80
2023-05-19T14:50:16.423Z,101586.40
2023-05-19T14:51:48.291Z,101590.40
2023-05-19T14:53:20.134Z,101590.40
2023-05-19T14:54:51.939Z,101572.00
2023-05-19T14:56:23.781Z,101569.60
2023-05-19T14:57:55.714Z,101563.40
2023-05-19T14:59:27.973Z,101569.60
2023-05-19T15:01:00.091Z,101570.20
2023-05-19T15:02:32.042Z,101564.20
2023-05-19T15:04:04.068Z,101571.80
2023-05-19T15:05:37.787Z,101570.80
2023-05-19T15:07:11.012Z,101571.20
2023-05-19T15:08:43.397Z,101572.40
2023-05-19T15:10:16.502Z,101570.00
2023-05-19T15:11:48.272Z,101568.60
2023-05-19T15:13:21.589Z,101560.40
2023-05-19T15:14:53.506Z,101559.60
2023-05-19T15:16:25.604Z,101557.80
2023-05-19T15:17:57.682Z,101560.40
2023-05-19T15:19:29.550Z,101568.40
2023-05-19T15:21:01.477Z,101564.00
2023-05-19T15:22:33.379Z,101571.60
2023-05-19T15:24:05.625Z,101570.20
2023-05-19T15:25:37.520Z,101572.80
2023-05-19T15:27:09.491Z,101563.00
2023-05-19T15:28:41.328Z,101560.60
2023-05-19T15:30:13.296Z,101559.20
2023-05-19T15:31:45.122Z,101553.40
2023-05-19T15:33:16.939Z,101555.00
2023-05-19T15:34:48.697Z,101560.00
2023-05-19T15:36:20.640Z,101559.00
2023-05-19T15:37:52.377Z,101565.40
2023-05-19T15:39:26.293Z,101565.40
2023-05-19T15:40:58.145Z,101557.40
2023-05-19T15:42:29.926Z,101559.20
2023-05-19T15:44:02.569Z,101579.00
2023-05-19T15:45:34.298Z,101582.00
2023-05-19T15:47:06.156Z,101578.60
2023-05-19T15:48:37.865Z,101576.60
2023-05-19T15:50:10.094Z,101573.80
2023-05-19T15:51:42.120Z,101560.60
2023-05-19T15:53:14.026Z,101558.60
2023-05-19T15:54:46.798Z,101556.80
2023-05-19T15:56:22.471Z,101554.60
2023-05-19T15:57:54.229Z,101562.60
2023-05-19T15:59:25.982Z,101550.20
2023-05-19T16:00:57.831Z,101559.40
2023-05-19T16:02:30.008Z,101558.40
2023-05-19T16:04:03.665Z,101553.20
2023-05-19T16:05:35.851Z,101553.20
2023-05-19T16:07:07.670Z,101553.20
2023-05-19T16:08:39.568Z,101551.60
2023-05-19T16:10:11.540Z,101541.80
2023-05-19T16:11:43.324Z,101538.20
2023-05-19T16:13:15.144Z,101543.60
2023-05-19T16:14:46.884Z,101544.60
2023-05-19T16:16:18.918Z,101551.60
2023-05-19T16:17:50.820Z,101555.80
2023-05-19T16:19:23.916Z,101563.00
2023-05-19T16:20:56.549Z,101563.40
2023-05-19T16:22:28.490Z,101538.80
2023-05-19T16:24:00.328Z,101545.00
2023-05-19T16:25:32.201Z,101552.20
2023-05-19T16:27:04.947Z,101542.80
2023-05-19T16:28:36.701Z,101538.40
2023-05-19T16:30:09.133Z,101535.20
2023-05-19T16:31:41.061Z,101529.80
2023-05-19T16:33:12.960Z,101526.80
2023-05-19T16:34:44.765Z,101526.00
2023-05-19T16:36:16.814Z,101526.40
2023-05-19T16:37:49.115Z,101525.40
2023-05-19T16:39:20.898Z,101532.20
2023-05-19T16:40:52.931Z,101522.40
2023-05-19T16:42:25.189Z,101528.80
2023-05-19T16:43:57.004Z,101525.60
2023-05-19T16:45:28.940Z,101527.40
2023-05-19T16:47:00.866Z,101528.40
2023-05-19T16:48:32.656Z,101524.40
2023-05-19T16:50:04.698Z,101522.80
2023-05-19T16:51:36.644Z,101526.80
2023-05-19T16:53:08.662Z,101521.20
2023-05-19T16:54:40.711Z,101522.00
2023-05-19T16:56:12.807Z,101523.00
2023-05-19T16:57:44.541Z,101522.60
2023-05-19T16:59:17.347Z,101520.60
2023-05-19T17:00:52.304Z,101522.40
2023-05-19T17:02:24.179Z,101523.20
2023-05-19T17:03:56.113Z,101526.20
2023-05-19T17:05:27.968Z,101522.40
2023-05-19T17:06:59.846Z,101518.60
2023-05-19T17:08:32.040Z,101522.20
2023-05-19T17:10:04.319Z,101521.00
2023-05-19T17:11:36.181Z,101522.60
2023-05-19T17:13:08.137Z,101520.20
2023-05-19T17:14:40.214Z,101521.20
2023-05-19T17:16:11.996Z,101520.20
2023-05-19T17:17:43.908Z,101521.80
2023-05-19T17:19:16.258Z,101521.40
2023-05-19T17:20:48.299Z,101517.60
2023-05-19T17:22:20.199Z,101520.20
2023-05-19T17:23:52.020Z,101521.60
2023-05-19T17:25:23.949Z,101524.40
2023-05-19T17:26:55.894Z,101527.00
2023-05-19T17:28:27.681Z,101517.40
2023-05-19T17:29:59.866Z,101514.60
2023-05-19T17:31:31.708Z,101512.80
2023-05-19T17:33:03.900Z,101518.00
2023-05-19T17:34:35.774Z,101515.20
2023-05-19T17:36:10.056Z,101517.60
2023-05-19T17:37:41.979Z,101521.20
2023-05-19T17:39:13.835Z,101522.00
2023-05-19T17:40:45.679Z,101516.40
2023-05-19T17:42:17.477Z,101522.40
2023-05-19T17:43:49.344Z,101523.00
2023-05-19T17:45:21.326Z,101529.40
2023-05-19T17:46:53.271Z,101527.60
2023-05-19T17:48:25.866Z,101525.80
2023-05-19T17:49:57.753Z,101537.80
2023-05-19T17:51:30.410Z,101549.80
2023-05-19T17:53:02.583Z,101551.60
2023-05-19T17:54:34.890Z,101553.60
2023-05-19T17:56:10.065Z,101553.00